sensor_id;sensor_type;location;lat;lon;timestamp;temperature;humidity
47482;DHT22;33219;47.410;9.730;2023-04-15T00:01:25;3.00;99.90
47482;DHT22;33219;47.410;9.730;2023-04-15T00:03:53;3.10;99.90
47482;DHT22;33219;47.410;9.730;2023-04-15T00:06:21;3.10;99.90
47482;DHT22;33219;47.410;9.730;2023-04-15T00:08:49;3.00;99.90
47482;DHT22;33219;47.410;9.730;2023-04-15T00:11:17;3.00;99.90
47482;DHT22;33219;47.410;9.730;2023-04-15T00:13:45;3.10;99.90
47482;DHT22;33219;47.410;9.730;2023-04-15T00:16:13;3.10;99.90
47482;DHT22;33219;47.410;9.730;2023-04-15T00:18:41;3.10;99.90
47482;DHT22;33219;47.410;9.730;2023-04-15T00:21:08;3.10;99.90
47482;DHT22;33219;47.410;9.730;2023-04-15T00:23:36;3.10;99.90
47482;DHT22;33219;47.410;9.730;2023-04-15T00:26:04;3.10;99.90
47482;DHT22;33219;47.410;9.730;2023-04-15T00:28:31;2.90;99.90
47482;DHT22;33219;47.410;9.730;2023-04-15T00:30:59;2.80;99.90
47482;DHT22;33219;47.410;9.730;2023-04-15T00:33:27;2.80;99.90
47482;DHT22;33219;47.410;9.730;2023-04-15T00:35:54;2.80;99.90
47482;DHT22;33219;47.410;9.730;2023-04-15T00:38:22;2.70;99.90
47482;DHT22;33219;47.410;9.730;2023-04-15T00:40:49;2.60;99.90
47482;DHT22;33219;47.410;9.730;2023-04-15T00:43:17;2.50;99.90
47482;DHT22;33219;47.410;9.730;2023-04-15T00:45:45;2.40;99.90
47482;DHT22;33219;47.410;9.730;2023-04-15T00:48:13;2.30;99.90
47482;DHT22;33219;47.410;9.730;2023-04-15T00:50:40;2.30;99.90
47482;DHT22;33219;47.410;9.730;2023-04-15T00:53:08;2.20;99.90
47482;DHT22;33219;47.410;9.730;2023-04-15T00:55:37;2.20;99.90
47482;DHT22;33219;47.410;9.730;2023-04-15T00:58:04;2.20;99.90
47482;DHT22;33219;47.410;9.730;2023-04-15T01:00:32;2.10;99.90
47482;DHT22;33219;47.410;9.730;2023-04-15T01:03:00;2.10;99.90
47482;DHT22;33219;47.410;9.730;2023-04-15T01:05:29;2.00;99.90
47482;DHT22;33219;47.410;9.730;2023-04-15T01:07:57;2.00;99.90
47482;DHT22;33219;47.410;9.730;2023-04-15T01:10:25;2.00;99.90
47482;DHT22;33219;47.410;9.730;2023-04-15T01:12:52;2.00;99.90
47482;DHT22;33219;47.410;9.730;2023-04-15T01:15:20;1.90;99.90
47482;DHT22;33219;47.410;9.730;2023-04-15T01:17:48;1.90;99.90
47482;DHT22;33219;47.410;9.730;2023-04-15T01:20:16;1.90;99.90
47482;DHT22;33219;47.410;9.730;2023-04-15T01:22:44;1.90;99.90
47482;DHT22;33219;47.410;9.730;2023-04-15T01:25:16;1.80;99.90
47482;DHT22;33219;47.410;9.730;2023-04-15T01:27:42;1.80;99.90
47482;DHT22;33219;47.410;9.730;2023-04-15T01:30:10;1.80;99.90
47482;DHT22;33219;47.410;9.730;2023-04-15T01:32:38;1.80;99.90
47482;DHT22;33219;47.410;9.730;2023-04-15T01:35:06;1.70;99.90
47482;DHT22;33219;47.410;9.730;2023-04-15T01:37:34;1.70;99.90
47482;DHT22;33219;47.410;9.730;2023-04-15T01:40:02;1.70;99.90
47482;DHT22;33219;47.410;9.730;2023-04-15T01:42:31;1.70;99.90
47482;DHT22;33219;47.410;9.730;2023-04-15T01:44:59;1.70;99.90
47482;DHT22;33219;47.410;9.730;2023-04-15T01:47:26;1.70;99.90
47482;DHT22;33219;47.410;9.730;2023-04-15T01:49:54;1.70;99.90
47482;DHT22;33219;47.410;9.730;2023-04-15T01:52:22;1.70;99.90
47482;DHT22;33219;47.410;9.730;2023-04-15T01:54:50;1.70;99.90
47482;DHT22;33219;47.410;9.730;2023-04-15T01:57:18;1.80;99.90
47482;DHT22;33219;47.410;9.730;2023-04-15T01:59:45;1.70;99.90
47482;DHT22;33219;47.410;9.730;2023-04-15T02:02:13;1.80;99.90
47482;DHT22;33219;47.410;9.730;2023-04-15T02:04:41;1.80;99.90
47482;DHT22;33219;47.410;9.730;2023-04-15T02:07:08;1.70;99.90
47482;DHT22;33219;47.410;9.730;2023-04-15T02:09:36;1.70;99.90
47482;DHT22;33219;47.410;9.730;2023-04-15T02:12:04;1.80;99.90
47482;DHT22;33219;47.410;9.730;2023-04-15T02:14:31;1.80;99.90
47482;DHT22;33219;47.410;9.730;2023-04-15T02:16:59;1.90;99.90
47482;DHT22;33219;47.410;9.730;2023-04-15T02:19:28;2.00;99.90
47482;DHT22;33219;47.410;9.730;2023-04-15T02:21:56;2.00;99.90
47482;DHT22;33219;47.410;9.730;2023-04-15T02:24:24;2.00;99.90
47482;DHT22;33219;47.410;9.730;2023-04-15T02:26:51;2.00;99.90
47482;DHT22;33219;47.410;9.730;2023-04-15T02:29:19;2.00;99.90
47482;DHT22;33219;47.410;9.730;2023-04-15T02:31:46;2.00;99.90
47482;DHT22;33219;47.410;9.730;2023-04-15T02:34:14;2.00;99.90
47482;DHT22;33219;47.410;9.730;2023-04-15T02:36:42;2.00;99.90
47482;DHT22;33219;47.410;9.730;2023-04-15T02:39:09;1.90;99.90
47482;DHT22;33219;47.410;9.730;2023-04-15T02:41:38;1.80;99.90
47482;DHT22;33219;47.410;9.730;2023-04-15T02:44:05;1.80;99.90
47482;DHT22;33219;47.410;9.730;2023-04-15T02:46:35;1.70;99.90
47482;DHT22;33219;47.410;9.730;2023-04-15T02:49:02;1.60;99.90
47482;DHT22;33219;47.410;9.730;2023-04-15T02:51:30;1.60;99.90
47482;DHT22;33219;47.410;9.730;2023-04-15T02:53:57;1.60;99.90
47482;DHT22;33219;47.410;9.730;2023-04-15T02:56:25;1.60;99.90
47482;DHT22;33219;47.410;9.730;2023-04-15T02:58:53;1.50;99.90
47482;DHT22;33219;47.410;9.730;2023-04-15T03:01:21;1.50;99.90
47482;DHT22;33219;47.410;9.730;2023-04-15T03:03:49;1.50;99.90
47482;DHT22;33219;47.410;9.730;2023-04-15T03:06:16;1.40;99.90
47482;DHT22;33219;47.410;9.730;2023-04-15T03:08:44;1.40;99.90
47482;DHT22;33219;47.410;9.730;2023-04-15T03:11:13;1.30;99.90
47482;DHT22;33219;47.410;9.730;2023-04-15T03:13:41;1.20;99.90
47482;DHT22;33219;47.410;9.730;2023-04-15T03:16:09;1.20;99.90
47482;DHT22;33219;47.410;9.730;2023-04-15T03:18:37;1.20;99.90
47482;DHT22;33219;47.410;9.730;2023-04-15T03:21:05;1.20;99.90
47482;DHT22;33219;47.410;9.730;2023-04-15T03:23:32;1.20;99.90
47482;DHT22;33219;47.410;9.730;2023-04-15T03:26:03;1.20;99.90
47482;DHT22;33219;47.410;9.730;2023-04-15T03:28:31;1.20;99.90
47482;DHT22;33219;47.410;9.730;2023-04-15T03:30:58;1.20;99.90
47482;DHT22;33219;47.410;9.730;2023-04-15T03:33:26;1.20;99.90
47482;DHT22;33219;47.410;9.730;2023-04-15T03:35:54;1.10;99.90
47482;DHT22;33219;47.410;9.730;2023-04-15T03:38:22;1.10;99.90
47482;DHT22;33219;47.410;9.730;2023-04-15T03:40:49;1.10;99.90
47482;DHT22;33219;47.410;9.730;2023-04-15T03:43:17;1.10;99.90
47482;DHT22;33219;47.410;9.730;2023-04-15T03:45:44;1.10;99.90
47482;DHT22;33219;47.410;9.730;2023-04-15T03:48:12;1.10;99.90
47482;DHT22;33219;47.410;9.730;2023-04-15T03:50:39;1.10;99.90
47482;DHT22;33219;47.410;9.730;2023-04-15T03:53:07;1.10;99.90
47482;DHT22;33219;47.410;9.730;2023-04-15T03:55:35;1.10;99.90
47482;DHT22;33219;47.410;9.730;2023-04-15T03:58:02;1.00;99.90
47482;DHT22;33219;47.410;9.730;2023-04-15T04:00:30;1.00;99.90
47482;DHT22;33219;47.410;9.730;2023-04-15T04:02:58;1.00;99.90
47482;DHT22;33219;47.410;9.730;2023-04-15T04:05:25;1.00;99.90
47482;DHT22;33219;47.410;9.730;2023-04-15T04:07:53;1.00;99.90
47482;DHT22;33219;47.410;9.730;2023-04-15T04:10:20;1.00;99.90
47482;DHT22;33219;47.410;9.730;2023-04-15T04:12:48;1.00;99.90
47482;DHT22;33219;47.410;9.730;2023-04-15T04:15:15;1.00;99.90
47482;DHT22;33219;47.410;9.730;2023-04-15T04:17:43;1.00;99.90
47482;DHT22;33219;47.410;9.730;2023-04-15T04:20:11;1.00;99.90
47482;DHT22;33219;47.410;9.730;2023-04-15T04:22:39;1.00;99.90
47482;DHT22;33219;47.410;9.730;2023-04-15T04:25:07;0.90;99.90
47482;DHT22;33219;47.410;9.730;2023-04-15T04:27:35;0.90;99.90
47482;DHT22;33219;47.410;9.730;2023-04-15T04:30:04;0.80;99.90
47482;DHT22;33219;47.410;9.730;2023-04-15T04:32:32;0.90;99.90
47482;DHT22;33219;47.410;9.730;2023-04-15T04:34:59;1.00;99.90
47482;DHT22;33219;47.410;9.730;2023-04-15T04:37:27;1.00;99.90
47482;DHT22;33219;47.410;9.730;2023-04-15T04:39:55;0.90;99.90
47482;DHT22;33219;47.410;9.730;2023-04-15T04:42:22;0.90;99.90
47482;DHT22;33219;47.410;9.730;2023-04-15T04:44:50;0.90;99.90
47482;DHT22;33219;47.410;9.730;2023-04-15T04:47:18;0.90;99.90
47482;DHT22;33219;47.410;9.730;2023-04-15T04:49:45;0.90;99.90
47482;DHT22;33219;47.410;9.730;2023-04-15T04:52:13;0.90;99.90
47482;DHT22;33219;47.410;9.730;2023-04-15T04:54:40;1.00;99.90
47482;DHT22;33219;47.410;9.730;2023-04-15T04:57:08;1.00;99.90
47482;DHT22;33219;47.410;9.730;2023-04-15T04:59:35;1.10;99.90
47482;DHT22;33219;47.410;9.730;2023-04-15T05:02:06;1.10;99.90
47482;DHT22;33219;47.410;9.730;2023-04-15T05:04:34;1.10;99.90
47482;DHT22;33219;47.410;9.730;2023-04-15T05:07:02;1.00;99.90
47482;DHT22;33219;47.410;9.730;2023-04-15T05:09:30;1.10;99.90
47482;DHT22;33219;47.410;9.730;2023-04-15T05:11:58;1.10;99.90
47482;DHT22;33219;47.410;9.730;2023-04-15T05:14:26;1.10;99.90
47482;DHT22;33219;47.410;9.730;2023-04-15T05:16:54;1.20;99.90
47482;DHT22;33219;47.410;9.730;2023-04-15T05:19:22;1.20;99.90
47482;DHT22;33219;47.410;9.730;2023-04-15T05:21:49;1.30;99.90
47482;DHT22;33219;47.410;9.730;2023-04-15T05:24:17;1.30;99.90
47482;DHT22;33219;47.410;9.730;2023-04-15T05:26:45;1.40;99.90
47482;DHT22;33219;47.410;9.730;2023-04-15T05:29:12;1.50;99.90
47482;DHT22;33219;47.410;9.730;2023-04-15T05:31:40;1.50;99.90
47482;DHT22;33219;47.410;9.730;2023-04-15T05:34:07;1.60;99.90
47482;DHT22;33219;47.410;9.730;2023-04-15T05:36:35;1.70;99.90
47482;DHT22;33219;47.410;9.730;2023-04-15T05:39:03;1.90;99.90
47482;DHT22;33219;47.410;9.730;2023-04-15T05:41:31;2.00;99.90
47482;DHT22;33219;47.410;9.730;2023-04-15T05:43:58;2.10;99.90
47482;DHT22;33219;47.410;9.730;2023-04-15T05:46:26;2.30;99.90
47482;DHT22;33219;47.410;9.730;2023-04-15T05:48:54;2.60;99.90
47482;DHT22;33219;47.410;9.730;2023-04-15T05:51:22;3.00;99.90
47482;DHT22;33219;47.410;9.730;2023-04-15T05:53:49;3.50;99.90
47482;DHT22;33219;47.410;9.730;2023-04-15T05:56:17;4.10;99.90
47482;DHT22;33219;47.410;9.730;2023-04-15T05:58:46;4.80;99.90
47482;DHT22;33219;47.410;9.730;2023-04-15T06:01:13;5.50;99.90
47482;DHT22;33219;47.410;9.730;2023-04-15T06:03:42;6.10;99.90
47482;DHT22;33219;47.410;9.730;2023-04-15T06:06:10;6.60;99.90
47482;DHT22;33219;47.410;9.730;2023-04-15T06:08:37;7.10;99.90
47482;DHT22;33219;47.410;9.730;2023-04-15T06:11:05;7.40;99.90
47482;DHT22;33219;47.410;9.730;2023-04-15T06:13:32;7.70;99.90
47482;DHT22;33219;47.410;9.730;2023-04-15T06:16:00;7.90;99.90
47482;DHT22;33219;47.410;9.730;2023-04-15T06:18:28;8.40;99.90
47482;DHT22;33219;47.410;9.730;2023-04-15T06:20:55;8.80;99.30
47482;DHT22;33219;47.410;9.730;2023-04-15T06:23:23;8.50;99.00
47482;DHT22;33219;47.410;9.730;2023-04-15T06:25:53;8.90;99.30
47482;DHT22;33219;47.410;9.730;2023-04-15T06:28:20;9.60;98.10
47482;DHT22;33219;47.410;9.730;2023-04-15T06:30:48;9.80;95.40
47482;DHT22;33219;47.410;9.730;2023-04-15T06:33:15;9.60;95.30
47482;DHT22;33219;47.410;9.730;2023-04-15T06:35:43;9.60;94.80
47482;DHT22;33219;47.410;9.730;2023-04-15T06:38:11;9.30;95.40
47482;DHT22;33219;47.410;9.730;2023-04-15T06:40:38;9.60;95.10
47482;DHT22;33219;47.410;9.730;2023-04-15T06:43:06;9.30;95.10
47482;DHT22;33219;47.410;9.730;2023-04-15T06:45:34;9.00;94.90
47482;DHT22;33219;47.410;9.730;2023-04-15T06:48:02;8.80;95.50
47482;DHT22;33219;47.410;9.730;2023-04-15T06:50:29;8.60;96.40
47482;DHT22;33219;47.410;9.730;2023-04-15T06:52:58;8.20;97.60
47482;DHT22;33219;47.410;9.730;2023-04-15T06:55:26;7.80;98.40
47482;DHT22;33219;47.410;9.730;2023-04-15T06:57:53;7.80;98.20
47482;DHT22;33219;47.410;9.730;2023-04-15T07:00:21;7.90;98.00
47482;DHT22;33219;47.410;9.730;2023-04-15T07:02:49;8.50;96.80
47482;DHT22;33219;47.410;9.730;2023-04-15T07:05:17;8.70;96.50
47482;DHT22;33219;47.410;9.730;2023-04-15T07:07:45;9.10;95.50
47482;DHT22;33219;47.410;9.730;2023-04-15T07:10:13;9.60;95.20
47482;DHT22;33219;47.410;9.730;2023-04-15T07:12:41;10.40;94.00
47482;DHT22;33219;47.410;9.730;2023-04-15T07:15:11;10.90;93.40
47482;DHT22;33219;47.410;9.730;2023-04-15T07:17:40;11.50;91.60
47482;DHT22;33219;47.410;9.730;2023-04-15T07:20:08;11.60;90.90
47482;DHT22;33219;47.410;9.730;2023-04-15T07:22:36;11.60;90.30
47482;DHT22;33219;47.410;9.730;2023-04-15T07:25:04;11.40;90.40
47482;DHT22;33219;47.410;9.730;2023-04-15T07:27:32;10.90;90.80
47482;DHT22;33219;47.410;9.730;2023-04-15T07:29:59;10.50;91.50
47482;DHT22;33219;47.410;9.730;2023-04-15T07:32:27;10.50;90.80
47482;DHT22;33219;47.410;9.730;2023-04-15T07:34:55;10.60;91.20
47482;DHT22;33219;47.410;9.730;2023-04-15T07:37:23;10.70;90.50
47482;DHT22;33219;47.410;9.730;2023-04-15T07:39:50;10.50;91.10
47482;DHT22;33219;47.410;9.730;2023-04-15T07:42:18;10.30;91.10
47482;DHT22;33219;47.410;9.730;2023-04-15T07:44:46;10.00;91.90
47482;DHT22;33219;47.410;9.730;2023-04-15T07:47:13;9.60;92.60
47482;DHT22;33219;47.410;9.730;2023-04-15T07:49:41;9.80;92.50
47482;DHT22;33219;47.410;9.730;2023-04-15T07:52:09;10.00;92.30
47482;DHT22;33219;47.410;9.730;2023-04-15T07:54:37;10.10;91.40
47482;DHT22;33219;47.410;9.730;2023-04-15T07:57:05;10.20;91.00
47482;DHT22;33219;47.410;9.730;2023-04-15T07:59:33;10.50;90.20
47482;DHT22;33219;47.410;9.730;2023-04-15T08:02:01;10.40;90.60
47482;DHT22;33219;47.410;9.730;2023-04-15T08:04:29;10.20;90.00
47482;DHT22;33219;47.410;9.730;2023-04-15T08:06:57;10.00;89.70
47482;DHT22;33219;47.410;9.730;2023-04-15T08:09:25;10.00;90.40
47482;DHT22;33219;47.410;9.730;2023-04-15T08:11:52;10.00;89.90
47482;DHT22;33219;47.410;9.730;2023-04-15T08:14:20;10.40;89.60
47482;DHT22;33219;47.410;9.730;2023-04-15T08:16:48;10.90;87.10
47482;DHT22;33219;47.410;9.730;2023-04-15T08:19:15;10.70;88.40
47482;DHT22;33219;47.410;9.730;2023-04-15T08:21:43;10.70;87.40
47482;DHT22;33219;47.410;9.730;2023-04-15T08:24:11;11.30;85.90
47482;DHT22;33219;47.410;9.730;2023-04-15T08:26:38;11.50;84.50
47482;DHT22;33219;47.410;9.730;2023-04-15T08:29:06;12.20;80.70
47482;DHT22;33219;47.410;9.730;2023-04-15T08:31:34;12.30;81.00
47482;DHT22;33219;47.410;9.730;2023-04-15T08:34:02;12.60;80.80
47482;DHT22;33219;47.410;9.730;2023-04-15T08:36:30;12.50;78.90
47482;DHT22;33219;47.410;9.730;2023-04-15T08:38:58;12.30;79.90
47482;DHT22;33219;47.410;9.730;2023-04-15T08:41:33;12.50;79.00
47482;DHT22;33219;47.410;9.730;2023-04-15T08:44:04;12.80;77.40
47482;DHT22;33219;47.410;9.730;2023-04-15T08:46:32;13.00;77.50
47482;DHT22;33219;47.410;9.730;2023-04-15T08:49:04;13.40;76.80
47482;DHT22;33219;47.410;9.730;2023-04-15T08:51:34;13.80;74.50
47482;DHT22;33219;47.410;9.730;2023-04-15T08:54:02;13.70;73.60
47482;DHT22;33219;47.410;9.730;2023-04-15T08:56:31;13.60;73.30
47482;DHT22;33219;47.410;9.730;2023-04-15T08:58:59;13.80;73.60
47482;DHT22;33219;47.410;9.730;2023-04-15T09:01:28;14.00;71.50
47482;DHT22;33219;47.410;9.730;2023-04-15T09:03:56;13.70;71.50
47482;DHT22;33219;47.410;9.730;2023-04-15T09:06:24;13.90;72.60
47482;DHT22;33219;47.410;9.730;2023-04-15T09:08:51;14.00;71.00
47482;DHT22;33219;47.410;9.730;2023-04-15T09:11:21;13.50;72.70
47482;DHT22;33219;47.410;9.730;2023-04-15T09:13:49;13.80;72.10
47482;DHT22;33219;47.410;9.730;2023-04-15T09:16:17;14.00;71.20
47482;DHT22;33219;47.410;9.730;2023-04-15T09:18:46;14.00;71.50
47482;DHT22;33219;47.410;9.730;2023-04-15T09:21:17;13.20;73.50
47482;DHT22;33219;47.410;9.730;2023-04-15T09:23:59;13.30;74.30
47482;DHT22;33219;47.410;9.730;2023-04-15T09:26:35;13.70;73.70
47482;DHT22;33219;47.410;9.730;2023-04-15T09:29:04;13.70;73.10
47482;DHT22;33219;47.410;9.730;2023-04-15T09:31:33;13.90;72.10
47482;DHT22;33219;47.410;9.730;2023-04-15T09:34:01;14.10;71.00
47482;DHT22;33219;47.410;9.730;2023-04-15T09:36:28;14.20;70.50
47482;DHT22;33219;47.410;9.730;2023-04-15T09:38:59;14.10;70.70
47482;DHT22;33219;47.410;9.730;2023-04-15T09:41:27;13.70;72.40
47482;DHT22;33219;47.410;9.730;2023-04-15T09:43:55;13.00;73.40
47482;DHT22;33219;47.410;9.730;2023-04-15T09:46:39;13.10;72.70
47482;DHT22;33219;47.410;9.730;2023-04-15T09:49:08;13.40;73.20
47482;DHT22;33219;47.410;9.730;2023-04-15T09:51:37;13.10;71.70
47482;DHT22;33219;47.410;9.730;2023-04-15T09:54:04;13.20;70.20
47482;DHT22;33219;47.410;9.730;2023-04-15T09:56:37;13.30;71.40
47482;DHT22;33219;47.410;9.730;2023-04-15T09:59:07;13.30;71.00
47482;DHT22;33219;47.410;9.730;2023-04-15T10:01:35;13.40;70.50
47482;DHT22;33219;47.410;9.730;2023-04-15T10:04:04;13.60;71.50
47482;DHT22;33219;47.410;9.730;2023-04-15T10:06:32;13.50;71.50
47482;DHT22;33219;47.410;9.730;2023-04-15T10:09:00;13.30;72.80
47482;DHT22;33219;47.410;9.730;2023-04-15T10:11:28;13.50;72.10
47482;DHT22;33219;47.410;9.730;2023-04-15T10:13:56;13.60;73.80
47482;DHT22;33219;47.410;9.730;2023-04-15T10:16:26;13.70;72.00
47482;DHT22;33219;47.410;9.730;2023-04-15T10:18:57;14.00;71.70
47482;DHT22;33219;47.410;9.730;2023-04-15T10:21:27;13.90;70.70
47482;DHT22;33219;47.410;9.730;2023-04-15T10:23:57;14.20;70.40
47482;DHT22;33219;47.410;9.730;2023-04-15T10:26:26;14.40;68.50
47482;DHT22;33219;47.410;9.730;2023-04-15T10:28:53;14.40;69.10
47482;DHT22;33219;47.410;9.730;2023-04-15T10:31:22;14.10;68.90
47482;DHT22;33219;47.410;9.730;2023-04-15T10:33:50;14.50;66.70
47482;DHT22;33219;47.410;9.730;2023-04-15T10:36:19;14.70;69.20
47482;DHT22;33219;47.410;9.730;2023-04-15T10:38:46;14.50;66.70
47482;DHT22;33219;47.410;9.730;2023-04-15T10:41:27;14.80;66.90
47482;DHT22;33219;47.410;9.730;2023-04-15T10:46:43;15.30;67.50
47482;DHT22;33219;47.410;9.730;2023-04-15T10:49:16;15.20;64.90
47482;DHT22;33219;47.410;9.730;2023-04-15T10:51:46;15.00;64.00
47482;DHT22;33219;47.410;9.730;2023-04-15T10:59:58;14.90;72.70
47482;DHT22;33219;47.410;9.730;2023-04-15T11:02:07;14.90;77.00
47482;DHT22;33219;47.410;9.730;2023-04-15T11:04:56;14.60;79.30
47482;DHT22;33219;47.410;9.730;2023-04-15T11:12:57;14.10;80.00
47482;DHT22;33219;47.410;9.730;2023-04-15T11:15:38;13.90;80.00
47482;DHT22;33219;47.410;9.730;2023-04-15T11:18:28;14.10;80.70
47482;DHT22;33219;47.410;9.730;2023-04-15T11:21:01;14.40;74.30
47482;DHT22;33219;47.410;9.730;2023-04-15T11:23:34;14.70;76.30
47482;DHT22;33219;47.410;9.730;2023-04-15T11:26:04;14.40;77.80
47482;DHT22;33219;47.410;9.730;2023-04-15T11:28:33;14.60;75.20
47482;DHT22;33219;47.410;9.730;2023-04-15T11:33:55;15.00;73.10
47482;DHT22;33219;47.410;9.730;2023-04-15T11:36:26;15.10;74.20
47482;DHT22;33219;47.410;9.730;2023-04-15T11:38:54;15.10;71.70
47482;DHT22;33219;47.410;9.730;2023-04-15T11:41:23;15.10;71.00
47482;DHT22;33219;47.410;9.730;2023-04-15T11:43:51;15.40;71.70
47482;DHT22;33219;47.410;9.730;2023-04-15T11:46:20;15.10;74.90
47482;DHT22;33219;47.410;9.730;2023-04-15T11:48:50;15.30;74.50
47482;DHT22;33219;47.410;9.730;2023-04-15T11:51:18;15.10;71.90
47482;DHT22;33219;47.410;9.730;2023-04-15T11:53:49;15.30;74.40
47482;DHT22;33219;47.410;9.730;2023-04-15T11:56:22;15.30;74.50
47482;DHT22;33219;47.410;9.730;2023-04-15T11:58:56;15.50;73.80
47482;DHT22;33219;47.410;9.730;2023-04-15T12:01:37;15.30;74.60
47482;DHT22;33219;47.410;9.730;2023-04-15T12:04:02;15.00;72.50
47482;DHT22;33219;47.410;9.730;2023-04-15T12:06:32;15.00;71.70
47482;DHT22;33219;47.410;9.730;2023-04-15T12:14:18;15.00;69.50
47482;DHT22;33219;47.410;9.730;2023-04-15T12:16:49;15.20;68.70
47482;DHT22;33219;47.410;9.730;2023-04-15T12:19:24;14.90;68.40
47482;DHT22;33219;47.410;9.730;2023-04-15T12:21:57;14.80;67.30
47482;DHT22;33219;47.410;9.730;2023-04-15T12:24:22;14.80;69.30
47482;DHT22;33219;47.410;9.730;2023-04-15T12:26:54;14.70;67.50
47482;DHT22;33219;47.410;9.730;2023-04-15T12:29:26;14.50;68.60
47482;DHT22;33219;47.410;9.730;2023-04-15T12:32:03;14.70;69.90
47482;DHT22;33219;47.410;9.730;2023-04-15T12:34:27;14.60;69.50
47482;DHT22;33219;47.410;9.730;2023-04-15T12:36:56;14.40;70.60
47482;DHT22;33219;47.410;9.730;2023-04-15T12:39:25;14.00;71.20
47482;DHT22;33219;47.410;9.730;2023-04-15T12:41:54;14.00;71.30
47482;DHT22;33219;47.410;9.730;2023-04-15T12:44:24;14.00;71.90
47482;DHT22;33219;47.410;9.730;2023-04-15T12:46:53;14.30;71.80
47482;DHT22;33219;47.410;9.730;2023-04-15T12:49:21;14.40;73.30
47482;DHT22;33219;47.410;9.730;2023-04-15T12:51:51;14.30;71.60
47482;DHT22;33219;47.410;9.730;2023-04-15T12:54:19;14.50;69.20
47482;DHT22;33219;47.410;9.730;2023-04-15T12:56:48;14.50;70.90
47482;DHT22;33219;47.410;9.730;2023-04-15T12:59:16;14.80;69.20
47482;DHT22;33219;47.410;9.730;2023-04-15T13:01:45;14.90;69.70
47482;DHT22;33219;47.410;9.730;2023-04-15T13:04:14;14.80;70.90
47482;DHT22;33219;47.410;9.730;2023-04-15T13:06:42;14.40;71.60
47482;DHT22;33219;47.410;9.730;2023-04-15T13:09:09;14.40;70.10
47482;DHT22;33219;47.410;9.730;2023-04-15T13:11:37;14.50;70.30
47482;DHT22;33219;47.410;9.730;2023-04-15T13:14:06;14.20;72.60
47482;DHT22;33219;47.410;9.730;2023-04-15T13:16:34;14.40;71.60
47482;DHT22;33219;47.410;9.730;2023-04-15T13:19:03;14.40;71.50
47482;DHT22;33219;47.410;9.730;2023-04-15T13:21:31;14.30;72.20
47482;DHT22;33219;47.410;9.730;2023-04-15T13:24:00;14.30;72.90
47482;DHT22;33219;47.410;9.730;2023-04-15T13:26:28;14.30;73.20
47482;DHT22;33219;47.410;9.730;2023-04-15T13:28:56;14.60;69.70
47482;DHT22;33219;47.410;9.730;2023-04-15T13:31:26;14.70;70.70
47482;DHT22;33219;47.410;9.730;2023-04-15T13:33:53;14.60;71.90
47482;DHT22;33219;47.410;9.730;2023-04-15T13:36:21;14.50;72.40
47482;DHT22;33219;47.410;9.730;2023-04-15T13:38:49;14.40;71.80
47482;DHT22;33219;47.410;9.730;2023-04-15T13:41:16;14.50;72.70
47482;DHT22;33219;47.410;9.730;2023-04-15T13:43:44;14.80;70.30
47482;DHT22;33219;47.410;9.730;2023-04-15T13:46:12;14.90;68.80
47482;DHT22;33219;47.410;9.730;2023-04-15T13:48:40;14.80;68.80
47482;DHT22;33219;47.410;9.730;2023-04-15T13:51:08;14.70;70.00
47482;DHT22;33219;47.410;9.730;2023-04-15T13:53:36;14.50;71.20
47482;DHT22;33219;47.410;9.730;2023-04-15T13:56:03;14.40;72.20
47482;DHT22;33219;47.410;9.730;2023-04-15T13:58:31;14.50;72.20
47482;DHT22;33219;47.410;9.730;2023-04-15T14:00:59;14.40;72.40
47482;DHT22;33219;47.410;9.730;2023-04-15T14:03:26;14.50;72.80
47482;DHT22;33219;47.410;9.730;2023-04-15T14:05:54;14.50;72.40
47482;DHT22;33219;47.410;9.730;2023-04-15T14:08:23;14.70;70.90
47482;DHT22;33219;47.410;9.730;2023-04-15T14:10:51;14.90;71.20
47482;DHT22;33219;47.410;9.730;2023-04-15T14:13:19;15.00;69.90
47482;DHT22;33219;47.410;9.730;2023-04-15T14:15:46;15.30;69.70
47482;DHT22;33219;47.410;9.730;2023-04-15T14:18:14;15.10;69.90
47482;DHT22;33219;47.410;9.730;2023-04-15T14:20:42;15.00;68.40
47482;DHT22;33219;47.410;9.730;2023-04-15T14:23:09;15.00;68.70
47482;DHT22;33219;47.410;9.730;2023-04-15T14:25:37;15.10;69.30
47482;DHT22;33219;47.410;9.730;2023-04-15T14:28:08;15.20;70.20
47482;DHT22;33219;47.410;9.730;2023-04-15T14:30:35;15.10;70.10
47482;DHT22;33219;47.410;9.730;2023-04-15T14:33:03;14.80;69.80
47482;DHT22;33219;47.410;9.730;2023-04-15T14:35:31;14.60;70.40
47482;DHT22;33219;47.410;9.730;2023-04-15T14:37:58;14.40;69.90
47482;DHT22;33219;47.410;9.730;2023-04-15T14:40:26;14.40;69.00
47482;DHT22;33219;47.410;9.730;2023-04-15T14:42:54;14.40;68.50
47482;DHT22;33219;47.410;9.730;2023-04-15T14:45:21;14.30;69.10
47482;DHT22;33219;47.410;9.730;2023-04-15T14:47:49;14.40;70.20
47482;DHT22;33219;47.410;9.730;2023-04-15T14:50:18;14.40;70.30
47482;DHT22;33219;47.410;9.730;2023-04-15T14:52:46;14.30;71.20
47482;DHT22;33219;47.410;9.730;2023-04-15T14:55:14;13.70;71.40
47482;DHT22;33219;47.410;9.730;2023-04-15T14:57:41;13.50;71.90
47482;DHT22;33219;47.410;9.730;2023-04-15T15:00:10;13.40;71.40
47482;DHT22;33219;47.410;9.730;2023-04-15T15:02:38;13.30;71.70
47482;DHT22;33219;47.410;9.730;2023-04-15T15:05:06;13.20;71.90
47482;DHT22;33219;47.410;9.730;2023-04-15T15:07:34;13.10;72.30
47482;DHT22;33219;47.410;9.730;2023-04-15T15:10:02;13.00;74.40
47482;DHT22;33219;47.410;9.730;2023-04-15T15:12:30;12.90;75.90
47482;DHT22;33219;47.410;9.730;2023-04-15T15:14:58;12.90;74.60
47482;DHT22;33219;47.410;9.730;2023-04-15T15:17:26;13.00;74.90
47482;DHT22;33219;47.410;9.730;2023-04-15T15:19:53;13.20;73.20
47482;DHT22;33219;47.410;9.730;2023-04-15T15:22:21;13.10;73.80
47482;DHT22;33219;47.410;9.730;2023-04-15T15:24:49;13.10;73.10
47482;DHT22;33219;47.410;9.730;2023-04-15T15:27:16;13.20;71.70
47482;DHT22;33219;47.410;9.730;2023-04-15T15:29:44;13.10;71.70
47482;DHT22;33219;47.410;9.730;2023-04-15T15:32:12;13.10;72.00
47482;DHT22;33219;47.410;9.730;2023-04-15T15:34:39;13.20;71.40
47482;DHT22;33219;47.410;9.730;2023-04-15T15:37:07;13.10;73.20
47482;DHT22;33219;47.410;9.730;2023-04-15T15:39:35;13.10;72.40
47482;DHT22;33219;47.410;9.730;2023-04-15T15:42:02;13.20;72.80
47482;DHT22;33219;47.410;9.730;2023-04-15T15:44:30;13.10;71.70
47482;DHT22;33219;47.410;9.730;2023-04-15T15:46:58;13.00;71.80
47482;DHT22;33219;47.410;9.730;2023-04-15T15:49:25;12.80;73.10
47482;DHT22;33219;47.410;9.730;2023-04-15T15:51:55;12.60;71.90
47482;DHT22;33219;47.410;9.730;2023-04-15T15:54:23;12.60;72.10
47482;DHT22;33219;47.410;9.730;2023-04-15T15:56:51;12.60;72.80
47482;DHT22;33219;47.410;9.730;2023-04-15T15:59:19;12.50;76.20
47482;DHT22;33219;47.410;9.730;2023-04-15T16:01:46;12.50;72.70
47482;DHT22;33219;47.410;9.730;2023-04-15T16:04:14;12.50;71.90
47482;DHT22;33219;47.410;9.730;2023-04-15T16:06:42;12.60;72.70